createdAt,value
2017-09-02T07:19:09.638Z,48.20
2017-09-02T07:21:35.681Z,90.90
2017-09-02T07:24:01.721Z,90.90
2017-09-02T07:26:27.726Z,90.80
2017-09-02T07:28:53.749Z,90.90
2017-09-02T07:31:19.778Z,90.80
2017-09-02T07:33:45.813Z,90.70
2017-09-02T07:36:11.861Z,90.60
2017-09-02T07:38:37.870Z,90.30
2017-09-02T07:41:03.910Z,90.50
2017-09-02T07:43:29.981Z,90.20
2017-09-02T07:45:56.036Z,90.10
2017-09-02T07:48:22.054Z,89.90
2017-09-02T07:50:48.082Z,88.30
2017-09-02T07:53:14.133Z,88.40
2017-09-02T07:55:40.151Z,88.10
2017-09-02T07:58:06.533Z,87.10
2017-09-02T08:00:32.577Z,86.70
2017-09-02T08:02:58.602Z,86.20
2017-09-02T08:05:24.650Z,85.60
2017-09-02T08:07:50.720Z,85.60
2017-09-02T08:10:16.885Z,85.10
2017-09-02T08:12:43.173Z,84.80
2017-09-02T08:15:09.229Z,85.30
2017-09-02T08:17:35.272Z,83.20
2017-09-02T08:20:01.829Z,83.40
2017-09-02T08:22:28.329Z,84.00
2017-09-02T08:24:54.424Z,84.00
2017-09-02T08:27:20.822Z,83.20
2017-09-02T08:29:47.022Z,83.30
2017-09-02T08:32:13.645Z,84.50
2017-09-02T08:34:40.687Z,83.40
2017-09-02T08:37:08.081Z,83.10
2017-09-02T08:39:34.199Z,83.20
2017-09-02T08:42:00.280Z,81.80
2017-09-02T08:44:26.327Z,81.60
2017-09-02T08:46:52.388Z,79.80
2017-09-02T08:49:18.437Z,79.60
2017-09-02T08:51:44.459Z,78.40
2017-09-02T08:54:10.472Z,78.20
2017-09-02T08:56:36.520Z,77.20
2017-09-02T08:59:02.546Z,76.50
2017-09-02T09:01:28.607Z,75.40
2017-09-02T09:03:55.985Z,76.00
2017-09-02T09:06:22.032Z,73.80
2017-09-02T09:08:48.181Z,70.40
2017-09-02T09:11:14.233Z,71.20
2017-09-02T09:13:40.320Z,71.00
2017-09-02T09:16:06.359Z,65.60
2017-09-02T09:18:32.385Z,64.20
2017-09-02T09:20:58.406Z,63.30
2017-09-02T09:23:24.465Z,63.70
2017-09-02T09:25:50.525Z,62.10
2017-09-02T09:28:16.541Z,60.00
2017-09-02T09:30:42.569Z,61.60
2017-09-02T09:33:08.652Z,66.30
2017-09-02T09:35:34.677Z,64.80
2017-09-02T09:38:00.724Z,61.90
2017-09-02T09:40:26.770Z,57.50
2017-09-02T09:42:52.806Z,57.40
2017-09-02T09:45:18.889Z,56.60
2017-09-02T09:47:44.961Z,52.80
2017-09-02T09:50:10.979Z,54.90
2017-09-02T09:52:37.013Z,53.60
2017-09-02T09:55:03.044Z,54.50
2017-09-02T09:57:29.113Z,56.60
2017-09-02T09:59:55.164Z,55.80
2017-09-02T10:02:21.204Z,55.90
2017-09-02T10:04:47.267Z,55.10
2017-09-02T10:07:13.309Z,53.50
2017-09-02T10:09:39.346Z,53.10
2017-09-02T10:12:05.364Z,56.10
2017-09-02T10:17:23.961Z,52.10
2017-09-02T10:19:50.001Z,49.40
2017-09-02T10:22:16.053Z,49.90
2017-09-02T10:24:42.113Z,50.20
2017-09-02T10:27:08.146Z,46.90
2017-09-02T10:29:34.165Z,43.40
2017-09-02T10:32:00.197Z,45.30
2017-09-02T10:34:26.226Z,44.80
2017-09-02T10:36:52.248Z,39.40
2017-09-02T10:39:18.258Z,37.50
2017-09-02T10:41:44.298Z,39.20
2017-09-02T10:44:10.348Z,35.90
2017-09-02T10:46:36.406Z,37.40
2017-09-02T10:49:02.431Z,34.90
2017-09-02T10:51:28.465Z,33.10
2017-09-02T10:53:54.472Z,32.10
2017-09-02T10:56:20.533Z,32.00
2017-09-02T10:58:46.557Z,32.70
2017-09-02T11:01:12.577Z,33.00
2017-09-02T11:03:38.614Z,31.50
2017-09-02T11:06:04.666Z,32.00
2017-09-02T11:08:30.691Z,31.00
2017-09-02T11:10:56.741Z,32.10
2017-09-02T11:13:22.774Z,34.60
2017-09-02T11:15:48.800Z,30.60
2017-09-02T11:18:14.839Z,32.90
2017-09-02T11:20:40.874Z,32.60
2017-09-02T11:23:06.913Z,35.10
2017-09-02T11:25:32.929Z,38.30
2017-09-02T11:27:58.957Z,37.70
2017-09-02T11:30:24.985Z,36.40
2017-09-02T11:32:51.040Z,38.10
2017-09-02T11:35:17.104Z,34.20
2017-09-02T11:37:43.153Z,31.30
2017-09-02T11:40:09.201Z,33.20
2017-09-02T11:42:35.224Z,32.50
2017-09-02T11:45:01.266Z,32.00
2017-09-02T11:47:27.308Z,36.40
2017-09-02T11:49:53.718Z,30.80
2017-09-02T11:52:19.825Z,30.10
2017-09-02T11:54:48.356Z,31.30
2017-09-02T11:57:14.482Z,33.40
2017-09-02T11:59:40.533Z,35.40
2017-09-02T12:02:06.566Z,32.50
2017-09-02T12:04:32.593Z,32.50
2017-09-02T12:06:58.661Z,31.90
2017-09-02T12:09:24.726Z,29.40
2017-09-02T12:11:50.769Z,30.10
2017-09-02T12:14:16.799Z,28.90
2017-09-02T12:16:42.877Z,26.70
2017-09-02T12:19:08.909Z,26.00
2017-09-02T12:21:34.952Z,25.40
2017-09-02T12:24:01.256Z,25.40
2017-09-02T12:26:27.645Z,28.70
2017-09-02T12:28:53.663Z,26.60
2017-09-02T12:31:19.714Z,27.90
2017-09-02T12:33:45.719Z,27.00
2017-09-02T12:36:11.757Z,26.80
2017-09-02T12:38:37.759Z,27.70
2017-09-02T12:41:03.765Z,28.00
2017-09-02T12:43:29.780Z,26.70
2017-09-02T12:45:55.810Z,26.90
2017-09-02T12:48:21.856Z,26.60
2017-09-02T12:50:47.858Z,27.10
2017-09-02T12:53:13.913Z,26.90
2017-09-02T12:55:39.920Z,26.10
2017-09-02T12:58:05.930Z,25.30
2017-09-02T13:00:31.954Z,27.70
2017-09-02T13:02:57.994Z,26.50
2017-09-02T13:05:24.038Z,28.60
2017-09-02T13:07:50.247Z,25.80
2017-09-02T13:10:16.245Z,28.20
2017-09-02T13:12:42.277Z,26.10
2017-09-02T13:15:08.278Z,27.60
2017-09-02T13:17:34.290Z,31.50
2017-09-02T13:20:00.315Z,30.50
2017-09-02T13:22:26.346Z,30.40
2017-09-02T13:24:52.385Z,34.40
2017-09-02T13:27:18.420Z,32.80
2017-09-02T13:29:44.457Z,34.10
2017-09-02T13:32:11.406Z,35.60
2017-09-02T13:34:37.681Z,36.10
2017-09-02T13:37:03.705Z,36.40
2017-09-02T13:39:29.741Z,34.50
2017-09-02T13:41:55.759Z,34.20
2017-09-02T13:44:21.785Z,31.80
2017-09-02T13:46:50.260Z,33.10
2017-09-02T13:49:16.545Z,29.90
2017-09-02T13:51:45.282Z,29.00
2017-09-02T13:54:18.899Z,29.30
2017-09-02T13:56:46.133Z,29.80
2017-09-02T13:59:12.690Z,32.10
2017-09-02T14:01:38.715Z,31.50
2017-09-02T14:04:04.740Z,32.80
2017-09-02T14:06:31.311Z,32.80
2017-09-02T14:08:57.336Z,31.60
2017-09-02T14:11:23.351Z,32.40
2017-09-02T14:13:49.357Z,29.80
2017-09-02T14:16:15.385Z,27.80
2017-09-02T14:18:41.382Z,27.70
2017-09-02T14:21:07.424Z,28.30
2017-09-02T14:23:33.425Z,26.00
2017-09-02T14:25:59.418Z,27.30
2017-09-02T14:28:25.437Z,28.50
2017-09-02T14:30:51.609Z,31.40
2017-09-02T14:33:17.629Z,33.40
2017-09-02T14:35:43.629Z,34.30
2017-09-02T14:38:09.641Z,32.40
2017-09-02T14:40:35.638Z,28.20
2017-09-02T14:43:01.671Z,30.90
2017-09-02T14:45:27.693Z,33.00
2017-09-02T14:47:53.704Z,36.40
2017-09-02T14:50:19.697Z,35.20
2017-09-02T14:52:45.763Z,35.60
2017-09-02T14:55:11.773Z,34.60
2017-09-02T14:57:37.797Z,32.00
2017-09-02T15:00:03.823Z,31.40
2017-09-02T15:02:29.813Z,30.70
2017-09-02T15:04:55.821Z,30.00
2017-09-02T15:07:21.825Z,29.10
2017-09-02T15:09:47.833Z,29.80
2017-09-02T15:12:13.861Z,29.40
2017-09-02T15:14:39.920Z,29.40
2017-09-02T15:17:05.936Z,29.80
2017-09-02T15:19:31.968Z,28.80
2017-09-02T15:21:57.994Z,31.20
2017-09-02T15:24:24.027Z,32.10
2017-09-02T15:26:50.044Z,34.20
2017-09-02T15:29:16.050Z,33.00
2017-09-02T15:31:42.045Z,34.10
2017-09-02T15:34:08.048Z,35.50
2017-09-02T15:36:34.057Z,35.70
2017-09-02T15:39:00.841Z,35.20
2017-09-02T15:41:26.853Z,35.20
2017-09-02T15:43:52.859Z,36.30
2017-09-02T15:46:18.903Z,36.70
2017-09-02T15:48:44.941Z,36.50
2017-09-02T15:51:10.954Z,36.60
2017-09-02T15:53:36.957Z,35.90
2017-09-02T15:56:02.953Z,35.00
2017-09-02T15:58:28.966Z,34.90
2017-09-02T16:00:54.991Z,34.20
2017-09-02T16:03:20.999Z,35.50
2017-09-02T16:05:47.009Z,35.50
2017-09-02T16:08:13.005Z,35.80
2017-09-02T16:10:39.024Z,36.40
2017-09-02T16:13:05.033Z,34.80
2017-09-02T16:15:31.047Z,35.00
2017-09-02T16:17:57.050Z,35.30
2017-09-02T16:20:23.057Z,35.90
2017-09-02T16:22:49.079Z,39.40
2017-09-02T16:25:15.099Z,41.00
2017-09-02T16:27:41.111Z,43.70
2017-09-02T16:30:07.162Z,43.90
2017-09-02T16:32:33.175Z,46.30
2017-09-02T16:34:59.174Z,47.70
2017-09-02T16:37:25.205Z,48.40
2017-09-02T16:39:51.201Z,50.00
2017-09-02T16:42:17.222Z,51.00
2017-09-02T16:44:43.229Z,51.50
2017-09-02T16:47:09.266Z,53.70
2017-09-02T16:49:35.274Z,53.80
2017-09-02T16:52:01.313Z,55.00
2017-09-02T16:54:27.344Z,55.70
2017-09-02T16:56:53.374Z,56.60
2017-09-02T16:59:19.427Z,56.00
2017-09-02T17:01:45.486Z,55.70
2017-09-02T17:04:11.533Z,56.10
2017-09-02T17:06:37.562Z,58.10
2017-09-02T17:09:03.606Z,58.40
2017-09-02T17:11:29.623Z,58.30
2017-09-02T17:13:55.650Z,60.10
2017-09-02T17:16:21.689Z,59.50
2017-09-02T17:18:47.717Z,60.30
2017-09-02T17:21:13.736Z,60.00
2017-09-02T17:23:39.767Z,60.60
2017-09-02T17:26:05.781Z,60.90
2017-09-02T17:28:31.804Z,61.90
2017-09-02T17:30:57.833Z,62.10
2017-09-02T17:33:23.851Z,62.10
2017-09-02T17:35:49.880Z,62.30
2017-09-02T17:38:16.619Z,61.70
2017-09-02T17:40:42.660Z,61.60
2017-09-02T17:43:08.668Z,61.30
2017-09-02T17:45:34.711Z,62.20
2017-09-02T17:48:00.734Z,62.70
2017-09-02T17:50:26.788Z,63.70
2017-09-02T17:52:52.785Z,63.00
2017-09-02T17:55:18.803Z,63.20
2017-09-02T17:57:44.861Z,64.20
2017-09-02T18:00:10.912Z,63.80
2017-09-02T18:02:36.943Z,64.60
2017-09-02T18:05:02.961Z,65.50
2017-09-02T18:07:28.984Z,65.40
2017-09-02T18:09:54.985Z,66.10
2017-09-02T18:12:20.994Z,66.70
2017-09-02T18:14:47.018Z,67.20
2017-09-02T18:17:13.042Z,67.40
2017-09-02T18:19:39.072Z,68.30
2017-09-02T18:22:05.101Z,68.70
2017-09-02T18:24:31.126Z,69.40
2017-09-02T18:26:57.177Z,70.10
2017-09-02T18:29:23.253Z,70.30
2017-09-02T18:31:49.277Z,69.80
2017-09-02T18:34:15.301Z,69.90
2017-09-02T18:36:42.097Z,71.50
2017-09-02T18:39:08.140Z,72.10
2017-09-02T18:41:34.241Z,71.40
2017-09-02T18:44:00.274Z,71.90
2017-09-02T18:46:26.333Z,71.50
2017-09-02T18:48:52.380Z,71.30
2017-09-02T18:51:18.428Z,73.30
2017-09-02T18:53:44.473Z,73.00
2017-09-02T18:56:10.485Z,73.40
2017-09-02T18:58:36.561Z,73.10
2017-09-02T19:01:02.605Z,73.60
2017-09-02T19:03:28.645Z,72.90
2017-09-02T19:05:54.763Z,74.00
2017-09-02T19:08:20.818Z,74.60
2017-09-02T19:10:46.831Z,75.00
2017-09-02T19:13:12.841Z,74.70
2017-09-02T19:15:38.854Z,75.30
2017-09-02T19:18:04.869Z,75.10
2017-09-02T19:22:56.836Z,76.50
2017-09-02T19:25:22.885Z,77.30
2017-09-02T19:27:48.886Z,76.80
2017-09-02T19:30:14.921Z,77.00
2017-09-02T19:32:40.943Z,76.30
2017-09-02T19:35:06.985Z,76.70
2017-09-02T19:37:33.018Z,77.10
2017-09-02T19:39:59.081Z,77.50
2017-09-02T19:42:25.105Z,77.60
2017-09-02T19:44:51.135Z,77.60
2017-09-02T19:47:17.157Z,77.40
2017-09-02T19:49:43.173Z,78.50
2017-09-02T19:52:09.203Z,79.00
2017-09-02T19:54:35.246Z,79.10
2017-09-02T19:57:01.305Z,79.80
2017-09-02T19:59:27.344Z,80.30
2017-09-02T20:01:53.397Z,80.90
2017-09-02T20:04:19.450Z,81.00
2017-09-02T20:06:45.541Z,80.80
2017-09-02T20:09:11.630Z,81.10
2017-09-02T20:11:37.710Z,81.60
2017-09-02T20:14:03.761Z,81.80
2017-09-02T20:16:29.828Z,81.20
2017-09-02T20:18:55.896Z,81.70
2017-09-02T20:21:21.941Z,82.40
2017-09-02T20:23:47.998Z,82.10
2017-09-02T20:26:14.058Z,82.80
2017-09-02T20:28:40.117Z,82.80
2017-09-02T20:31:06.163Z,83.30
2017-09-02T20:33:32.231Z,82.90
2017-09-02T20:35:58.267Z,83.20
2017-09-02T20:38:24.312Z,83.60
2017-09-02T20:40:50.397Z,84.00
2017-09-02T20:43:16.524Z,83.50
2017-09-02T20:45:42.569Z,83.00
2017-09-02T20:48:08.635Z,83.80
2017-09-02T20:50:34.706Z,83.80
2017-09-02T20:53:00.754Z,83.70
2017-09-02T20:55:26.826Z,83.90
2017-09-02T20:57:52.853Z,84.10
2017-09-02T21:00:18.938Z,84.00
2017-09-02T21:02:45.025Z,84.70
2017-09-02T21:05:11.111Z,85.60
2017-09-02T21:07:37.175Z,85.90
2017-09-02T21:10:03.245Z,85.40
2017-09-02T21:12:29.315Z,86.10
2017-09-02T21:14:55.409Z,86.50
2017-09-02T21:17:21.438Z,86.60
2017-09-02T21:19:47.536Z,86.40
2017-09-02T21:22:13.630Z,86.50
2017-09-02T21:24:39.680Z,86.30
2017-09-02T21:27:05.727Z,86.20
2017-09-02T21:29:31.771Z,86.80
2017-09-02T21:31:57.847Z,86.80
2017-09-02T21:34:23.885Z,87.20
2017-09-02T21:36:49.929Z,87.10
2017-09-02T21:39:15.964Z,87.10
2017-09-02T21:41:42.009Z,87.50
2017-09-02T21:44:08.057Z,87.20
2017-09-02T21:46:34.113Z,87.60
2017-09-02T21:49:00.190Z,87.80
2017-09-02T21:51:26.214Z,87.40
2017-09-02T21:53:52.257Z,87.40
2017-09-02T21:56:18.312Z,87.70
2017-09-02T21:58:44.364Z,87.80
2017-09-02T22:01:10.399Z,87.30
2017-09-02T22:03:36.461Z,88.00
2017-09-02T22:06:02.489Z,88.20
2017-09-02T22:08:28.515Z,88.00
2017-09-02T22:10:54.548Z,88.10
2017-09-02T22:13:20.617Z,88.30
2017-09-02T22:15:46.654Z,88.20
2017-09-02T22:18:12.700Z,88.90
2017-09-02T22:20:38.754Z,88.90
2017-09-02T22:23:04.809Z,88.50
2017-09-02T22:25:30.892Z,89.20
2017-09-02T22:27:56.949Z,88.30
2017-09-02T22:30:22.988Z,89.00
2017-09-02T22:32:49.029Z,89.40
2017-09-02T22:35:15.065Z,89.00
2017-09-02T22:37:41.089Z,89.00
2017-09-02T22:40:07.126Z,88.40
2017-09-02T22:42:33.167Z,89.30
2017-09-02T22:44:59.190Z,89.50
2017-09-02T22:47:25.229Z,89.20
2017-09-02T22:49:51.280Z,89.30
2017-09-02T22:52:17.322Z,90.00
2017-09-02T22:54:43.342Z,90.00
2017-09-02T22:57:09.390Z,90.10
2017-09-02T22:59:35.401Z,90.10
2017-09-02T23:02:01.433Z,90.20
2017-09-02T23:04:27.470Z,90.20
2017-09-02T23:06:53.603Z,90.20
2017-09-02T23:09:19.652Z,90.40
2017-09-02T23:11:45.695Z,90.30
2017-09-02T23:14:11.754Z,90.30
2017-09-02T23:16:37.797Z,90.20
2017-09-02T23:19:03.830Z,90.50
2017-09-02T23:21:29.853Z,90.30
2017-09-02T23:23:55.873Z,90.10
2017-09-02T23:26:21.905Z,90.40
2017-09-02T23:28:47.933Z,90.60
2017-09-02T23:31:13.965Z,90.50
2017-09-02T23:33:40.021Z,90.60
2017-09-02T23:36:06.092Z,90.80
2017-09-02T23:38:32.148Z,90.70
2017-09-02T23:40:58.184Z,90.70
2017-09-02T23:43:24.221Z,90.90
2017-09-02T23:45:50.277Z,90.80
2017-09-02T23:48:16.321Z,90.90
2017-09-02T23:50:42.358Z,91.10
2017-09-02T23:53:08.397Z,91.10
2017-09-02T23:55:34.435Z,91.00
2017-09-02T23:58:00.474Z,91.10
